Flight Track Log - Related Links

Times and Time Zones

All times are in EDT time to prevent confusion due to time zone crossing. See the SWA3561 flight status page for this flight to view local times or setup timezone preferences in your user account.

Time Position Orientation Groundspeed Altitude Reporting Facility
EDT Latitude Longitude Course Direction KTS MPH feet Rate Location/Type
Sat 09:34:52 AM 32.8500 -96.8667 185° South 156 180 1,400  Level Dallas / Fort Worth TRACON
Sat 09:35:17 AM 32.8667 -96.8833 320° Northwest 176 203 2,100 2,214 Climbing Dallas / Fort Worth TRACON
Sat 09:36:16 AM 32.9167 -96.9333 320° Northwest 244 281 4,500 2,017 Climbing Dallas / Fort Worth TRACON
Sat 09:37:16 AM 32.9333 -96.8667 73° East 286 329 6,100 2,706 Climbing Dallas / Fort Worth TRACON
Sat 09:38:49 AM 32.8381 -96.7631 138° Southeast 292 336 11,400 3,020 Climbing Fort Worth Center
Sat 09:39:49 AM 32.7525 -96.7811 190° South 267 307 13,800 2,950 Climbing Fort Worth Center
Sat 09:40:00 AM 32.5161 -97.0434 185° South  Level FlightAware Approximate
Sat 09:40:49 AM 32.6672 -96.8433 212° Southwest 290 334 17,300  Level Fort Worth Center
Sat 09:41:49 AM 32.5733 -96.8933 204° Southwest 356 410 20,100 2,800 Climbing Fort Worth Center
Sat 09:42:49 AM 32.4922 -96.9406 206° Southwest 361 415 22,900 2,650 Climbing Fort Worth Center
Sat 09:43:49 AM 32.3900 -97.0000 206° Southwest 366 421 25,400 2,450 Climbing Fort Worth Center
Sat 09:44:49 AM 32.3108 -97.0447 206° Southwest 357 411 27,800 1,300 Climbing Fort Worth Center
Sat 09:45:49 AM 32.1983 -97.0647 189° South 362 417 28,000 100 Climbing Fort Worth Center
Sat 09:46:49 AM 32.0814 -97.0700 182° South 396 456 28,000  Level Fort Worth Center
Sat 09:47:49 AM 31.9728 -97.0681 179° South 402 463 28,000  Level Fort Worth Center
Sat 09:48:49 AM 31.8622 -97.0733 182° South 402 463 28,000  Level Fort Worth Center
Sat 09:50:41 AM 31.6625 -97.0794 181° South 393 452 28,000  Level Houston Center
Sat 09:51:42 AM 31.5514 -97.0828 181° South 393 452 28,000  Level Houston Center
Sat 09:52:43 AM 31.4492 -97.1147 195° South 380 437 28,000  Level Houston Center
Sat 09:53:44 AM 31.3483 -97.1544 199° South 377 434 28,000  Level Houston Center
Sat 09:54:46 AM 31.2483 -97.1936 199° South 375 432 28,000  Level Houston Center
Sat 09:55:47 AM 31.1497 -97.2325 199° South 371 427 28,000  Level Houston Center
Sat 09:56:48 AM 31.0522 -97.2708 199° South 368 423 28,000  Level Houston Center
Sat 09:57:50 AM 30.9500 -97.3114 199° South 374 430 28,000  Level Houston Center
Sat 09:58:51 AM 30.8400 -97.3519 198° South 378 435 28,000  Level Houston Center
Sat 09:59:52 AM 30.7447 -97.3883 198° South 364 419 28,000 -393 Level Houston Center
Sat 10:00:53 AM 30.6483 -97.4264 199° South 361 415 27,200 -878 Descending Houston Center
Sat 10:01:55 AM 30.5514 -97.4639 198° South 364 419 26,200 -976 Descending Houston Center
Sat 10:02:56 AM 30.4514 -97.5019 198° South 373 429 25,200 -984 Descending Houston Center
Sat 10:03:57 AM 30.3533 -97.5478 202° Southwest 378 435 24,200 -1,024 Descending Houston Center
Sat 10:04:59 AM 30.2642 -97.6089 211° Southwest 371 427 23,100 -1,659 Descending Houston Center
Sat 10:06:00 AM 30.1800 -97.6675 211° Southwest 353 406 20,800 -2,220 Descending Houston Center
Sat 10:06:39 AM 30.1311 -97.7017 211° Southwest 338 389 19,400 -2,164 Descending Houston Center
Sat 10:07:01 AM 30.1025 -97.7211 210° Southwest 327 376 18,600 -2,241 Descending Houston Center
Sat 10:08:02 AM 30.0189 -97.7778 210° Southwest 320 368 16,300 -2,341 Descending Houston Center
Sat 10:09:04 AM 29.9342 -97.8369 211° Southwest 331 381 13,800 -2,293 Descending Houston Center
Sat 10:10:05 AM 29.8694 -97.9119 225° Southwest 337 388 11,600 -1,869 Descending Houston Center
Sat 10:11:06 AM 29.8044 -97.9883 226° Southwest 331 381 10,000 -1,353 Descending Houston Center
Sat 10:12:18 AM 29.7381 -98.0697 227° Southwest 271 312 8,600 -1,364 Descending Houston Center
Sat 10:13:18 AM 29.6850 -98.1317 225° Southwest 272 313 7,000 -1,661 Descending Houston Center
Sat 10:14:10 AM 29.6394 -98.1856 226° Southwest 272 313 5,500 -1,701 Descending Houston Center
Sat 10:14:25 AM 29.6264 -98.2014 227° Southwest 273 314 5,100 -1,180 Descending Houston Center
Sat 10:15:11 AM 29.5869 -98.2481 226° Southwest 271 312 4,300 -778 Descending Houston Center
Sat 10:16:13 AM 29.5347 -98.3117 227° Southwest 255 293 3,700 -732 Descending Houston Center
Sat 10:17:14 AM 29.4886 -98.3661 226° Southwest 240 276 2,800 -744 Descending Houston Center
Sat 10:18:22 AM 29.4914 -98.4197 273° West 153 176 2,100 -780 Descending Houston Center
Sat 10:19:17 AM 29.5167 -98.4506 313° West 145 167 1,200 -672 Descending Houston Center
Sat 10:20:18 AM 29.5428 -98.4853 311° West 140 161 800 -393 Descending Houston Center

Login

Don't have an account? Register now (free) for customized features, flight alerts, and more!